createdAt,value
2022-10-04T00:07:05.926Z,63.20
2022-10-04T00:12:22.321Z,63.20
2022-10-04T00:17:25.253Z,63.20
2022-10-04T00:19:53.017Z,63.30
2022-10-04T00:22:28.505Z,63.30
2022-10-04T00:25:07.693Z,63.40
2022-10-04T00:27:36.590Z,63.30
2022-10-04T00:30:03.332Z,63.20
2022-10-04T00:32:39.520Z,63.70
2022-10-04T00:35:25.166Z,63.80
2022-10-04T00:38:07.056Z,63.90
2022-10-04T00:43:33.699Z,63.70
2022-10-04T00:46:14.463Z,63.80
2022-10-04T00:48:54.956Z,63.80
2022-10-04T00:51:48.360Z,63.80
2022-10-04T00:54:18.660Z,63.80
2022-10-04T00:56:52.513Z,63.80
2022-10-04T00:59:38.714Z,63.90
2022-10-04T01:02:15.813Z,63.80
2022-10-04T01:04:50.670Z,63.90
2022-10-04T01:07:23.475Z,63.80
2022-10-04T01:10:12.235Z,63.90
2022-10-04T01:12:51.254Z,63.90
2022-10-04T01:18:19.479Z,64.10
2022-10-04T01:20:52.086Z,63.90
2022-10-04T01:23:46.769Z,63.90
2022-10-04T01:26:34.992Z,64.10
2022-10-04T01:29:18.557Z,63.90
2022-10-04T01:31:50.824Z,63.90
2022-10-04T01:34:22.379Z,63.90
2022-10-04T01:36:51.454Z,64.00
2022-10-04T01:39:20.387Z,64.00
2022-10-04T01:42:18.603Z,64.00
2022-10-04T01:44:56.369Z,63.90
2022-10-04T01:47:43.564Z,63.90
2022-10-04T01:50:20.222Z,64.10
2022-10-04T01:53:22.579Z,64.10
2022-10-04T01:55:53.778Z,64.10
2022-10-04T01:58:32.317Z,64.10
2022-10-04T02:01:10.330Z,64.20
2022-10-04T02:03:45.835Z,64.20
2022-10-04T02:08:50.815Z,64.20
2022-10-04T02:11:21.915Z,64.30
2022-10-04T02:13:51.680Z,64.40
2022-10-04T02:16:20.094Z,64.30
2022-10-04T02:18:49.440Z,64.30
2022-10-04T02:23:45.452Z,64.30
2022-10-04T02:26:12.735Z,64.40
2022-10-04T02:31:27.587Z,64.50
2022-10-04T02:33:58.328Z,64.60
2022-10-04T02:36:29.437Z,64.60
2022-10-04T02:41:32.047Z,64.40
2022-10-04T02:44:12.328Z,64.40
2022-10-04T02:47:14.784Z,64.40
2022-10-04T02:49:52.605Z,64.50
2022-10-04T02:52:35.763Z,64.40
2022-10-04T02:55:12.292Z,64.50
2022-10-04T02:57:42.504Z,64.40
2022-10-04T03:00:20.850Z,66.30
2022-10-04T03:03:15.917Z,64.60
2022-10-04T03:05:53.597Z,64.70
2022-10-04T03:15:44.394Z,64.80
2022-10-04T03:18:11.313Z,64.80
2022-10-04T03:20:40.384Z,64.70
2022-10-04T03:23:09.238Z,64.70
2022-10-04T03:25:59.700Z,64.60
2022-10-04T03:28:29.024Z,64.60
2022-10-04T03:33:26.980Z,64.60
2022-10-04T03:35:57.278Z,64.60
2022-10-04T03:38:26.441Z,64.60
2022-10-04T03:40:59.556Z,64.80
2022-10-04T03:43:31.721Z,65.00
2022-10-04T03:46:00.897Z,64.80
2022-10-04T03:48:35.255Z,65.00
2022-10-04T03:51:05.079Z,64.80
2022-10-04T03:53:43.155Z,64.80
2022-10-04T03:56:15.893Z,65.00
2022-10-04T03:58:43.846Z,64.90
2022-10-04T04:01:51.860Z,64.90
2022-10-04T04:04:48.193Z,64.90
2022-10-04T04:07:21.088Z,64.90
2022-10-04T04:09:51.777Z,65.00
2022-10-04T04:12:34.296Z,65.10
2022-10-04T04:15:02.309Z,65.10
2022-10-04T04:17:57.672Z,65.10
2022-10-04T04:20:37.992Z,65.20
2022-10-04T04:23:32.953Z,65.30
2022-10-04T04:26:25.346Z,65.40
2022-10-04T04:29:13.712Z,65.40
2022-10-04T04:31:51.079Z,65.40
2022-10-04T04:34:50.399Z,65.40
2022-10-04T04:37:17.195Z,65.40
2022-10-04T04:42:32.074Z,65.50
2022-10-04T04:45:06.256Z,65.60
2022-10-04T04:47:41.978Z,65.70
2022-10-04T04:50:16.056Z,65.70
2022-10-04T04:52:53.338Z,65.60
2022-10-04T04:55:24.171Z,65.70
2022-10-04T04:57:55.908Z,65.80
2022-10-04T05:00:35.112Z,65.80
2022-10-04T05:03:05.415Z,65.80
2022-10-04T05:05:33.785Z,65.80
2022-10-04T05:08:19.529Z,65.90
2022-10-04T05:13:16.545Z,65.90
2022-10-04T05:15:44.377Z,66.00
2022-10-04T05:18:20.328Z,65.90
2022-10-04T05:20:51.906Z,66.00
2022-10-04T05:23:18.921Z,65.90
2022-10-04T05:25:46.001Z,65.90
2022-10-04T05:28:18.811Z,65.80
2022-10-04T05:30:50.008Z,65.60
2022-10-04T05:33:37.161Z,65.50
2022-10-04T05:36:33.272Z,65.40
2022-10-04T05:39:15.051Z,65.50
2022-10-04T05:42:07.852Z,65.50
2022-10-04T05:44:50.118Z,65.60
2022-10-04T05:47:22.872Z,65.60
2022-10-04T05:49:53.775Z,65.70
2022-10-04T05:52:40.459Z,65.70
2022-10-04T05:55:37.776Z,65.70
2022-10-04T05:58:23.507Z,65.80
2022-10-04T06:00:57.393Z,66.10
2022-10-04T06:04:00.118Z,66.10
2022-10-04T06:06:49.541Z,66.10
2022-10-04T06:09:54.553Z,65.90
2022-10-04T06:12:37.813Z,65.90
2022-10-04T06:15:39.117Z,65.70
2022-10-04T06:18:42.214Z,65.70
2022-10-04T06:21:28.540Z,65.70
2022-10-04T06:24:10.719Z,65.80
2022-10-04T06:26:40.625Z,65.80
2022-10-04T06:29:13.682Z,65.90
2022-10-04T06:31:59.093Z,66.10
2022-10-04T06:34:42.113Z,66.20
2022-10-04T06:37:42.057Z,66.30
2022-10-04T06:40:46.063Z,66.50
2022-10-04T06:43:28.340Z,66.50
2022-10-04T06:46:27.707Z,66.70
2022-10-04T06:49:16.138Z,66.60
2022-10-04T06:51:49.761Z,66.70
2022-10-04T06:54:20.260Z,66.80
2022-10-04T06:57:09.400Z,66.80
2022-10-04T06:59:54.303Z,66.60
2022-10-04T07:02:34.319Z,66.60
2022-10-04T07:05:30.713Z,66.60
2022-10-04T07:08:31.027Z,66.50
2022-10-04T07:11:23.556Z,66.30
2022-10-04T07:14:04.754Z,66.10
2022-10-04T07:19:17.460Z,66.30
2022-10-04T07:22:06.453Z,66.30
2022-10-04T07:25:14.765Z,66.50
2022-10-04T07:28:20.929Z,66.60
2022-10-04T07:31:03.667Z,66.70
2022-10-04T07:33:34.732Z,66.80
2022-10-04T07:36:06.141Z,67.00
2022-10-04T07:38:36.428Z,67.10
2022-10-04T07:41:09.704Z,67.20
2022-10-04T07:43:56.661Z,67.20
2022-10-04T07:46:40.411Z,67.40
2022-10-04T07:49:15.007Z,67.40
2022-10-04T07:52:19.528Z,67.50
2022-10-04T07:55:07.411Z,67.40
2022-10-04T07:57:52.989Z,67.60
2022-10-04T08:00:49.371Z,67.80
2022-10-04T08:03:43.162Z,67.90
2022-10-04T08:06:17.905Z,68.00
2022-10-04T08:11:44.331Z,68.10
2022-10-04T08:14:31.033Z,68.10
2022-10-04T08:17:25.018Z,68.20
2022-10-04T08:22:53.202Z,68.30
2022-10-04T08:25:46.879Z,68.30
2022-10-04T08:28:49.573Z,68.30
2022-10-04T08:31:21.513Z,68.60
2022-10-04T08:34:26.457Z,68.70
2022-10-04T08:37:11.887Z,68.70
2022-10-04T08:39:50.735Z,68.60
2022-10-04T08:42:28.112Z,68.80
2022-10-04T08:45:34.709Z,69.10
2022-10-04T08:48:22.665Z,69.00
2022-10-04T08:51:08.261Z,69.00
2022-10-04T08:54:12.013Z,69.00
2022-10-04T08:57:13.497Z,69.90
2022-10-04T09:00:14.143Z,70.20
2022-10-04T09:03:15.733Z,69.20
2022-10-04T09:05:58.376Z,70.00
2022-10-04T09:08:40.617Z,70.00
2022-10-04T09:11:16.558Z,69.40
2022-10-04T09:13:52.198Z,70.10
2022-10-04T09:16:47.293Z,69.80
2022-10-04T09:19:30.928Z,68.90
2022-10-04T09:22:16.604Z,69.00
2022-10-04T09:25:04.492Z,68.60
2022-10-04T09:27:56.319Z,69.10
2022-10-04T09:30:52.222Z,69.20
2022-10-04T09:33:33.410Z,68.70
2022-10-04T09:36:30.548Z,68.30
2022-10-04T09:39:30.064Z,68.90
2022-10-04T09:42:00.429Z,68.80
2022-10-04T09:44:35.903Z,68.70
2022-10-04T09:47:37.559Z,68.10
2022-10-04T09:50:14.251Z,68.60
2022-10-04T09:52:57.259Z,68.50
2022-10-04T09:56:01.201Z,68.40
2022-10-04T09:58:53.315Z,68.40
2022-10-04T10:01:29.429Z,68.50
2022-10-04T10:04:44.423Z,68.60
2022-10-04T10:07:32.567Z,68.60
2022-10-04T10:10:45.271Z,68.60
2022-10-04T10:13:43.065Z,67.40
2022-10-04T10:16:47.091Z,68.20
2022-10-04T10:19:23.006Z,68.00
2022-10-04T10:22:11.374Z,68.10
2022-10-04T10:24:57.470Z,67.80
2022-10-04T10:27:52.757Z,67.60
2022-10-04T10:30:32.563Z,67.50
2022-10-04T10:33:20.468Z,67.70
2022-10-04T10:36:17.114Z,66.90
2022-10-04T10:39:07.556Z,67.00
2022-10-04T10:44:44.104Z,66.80
2022-10-04T10:47:40.973Z,66.70
2022-10-04T10:50:30.619Z,66.40
2022-10-04T10:53:31.350Z,66.30
2022-10-04T10:56:32.472Z,66.10
2022-10-04T10:59:30.541Z,66.00
2022-10-04T11:02:00.980Z,65.70
2022-10-04T11:04:30.971Z,65.50
2022-10-04T11:07:25.298Z,65.20
2022-10-04T11:10:08.254Z,65.10
2022-10-04T11:13:08.496Z,64.90
2022-10-04T11:15:51.695Z,64.80
2022-10-04T11:18:37.500Z,64.80
2022-10-04T11:21:25.878Z,64.60
2022-10-04T11:26:42.232Z,64.30
2022-10-04T11:29:29.427Z,64.20
2022-10-04T11:32:02.120Z,64.40
2022-10-04T11:34:50.880Z,64.30
2022-10-04T11:37:36.072Z,64.10
2022-10-04T11:40:24.281Z,64.00
2022-10-04T11:43:24.920Z,64.00
2022-10-04T11:45:55.908Z,63.90
2022-10-04T11:48:35.594Z,63.90
2022-10-04T11:53:42.173Z,63.90
2022-10-04T11:56:34.166Z,63.80
2022-10-04T11:59:18.474Z,64.00
2022-10-04T12:02:16.415Z,64.30
2022-10-04T12:04:50.278Z,64.40
2022-10-04T12:07:26.729Z,64.10
2022-10-04T12:10:02.234Z,63.80
2022-10-04T12:12:53.159Z,63.60
2022-10-04T12:16:04.641Z,63.50
2022-10-04T12:18:56.760Z,63.30
2022-10-04T12:21:52.574Z,63.30
2022-10-04T12:24:34.317Z,63.40
2022-10-04T12:30:13.836Z,62.40
2022-10-04T12:45:58.149Z,65.10
2022-10-04T12:57:10.249Z,60.80
2022-10-04T12:59:53.151Z,62.00
2022-10-04T13:10:31.922Z,57.90
2022-10-04T13:13:20.692Z,56.80
2022-10-04T13:21:44.439Z,53.70
2022-10-04T13:24:30.803Z,53.10
2022-10-04T13:27:14.089Z,52.10
2022-10-04T13:29:54.675Z,51.20
2022-10-04T13:32:30.460Z,51.00
2022-10-04T13:35:37.633Z,48.40
2022-10-04T13:43:33.244Z,46.50
2022-10-04T13:46:33.522Z,45.30
2022-10-04T13:49:14.654Z,46.50
2022-10-04T13:58:02.212Z,46.30
2022-10-04T14:21:51.038Z,41.60
2022-10-04T14:43:52.985Z,42.00
2022-10-04T15:02:26.593Z,43.40
2022-10-04T15:36:58.012Z,42.20
2022-10-04T15:53:07.222Z,41.50
2022-10-04T16:48:27.935Z,44.50
2022-10-04T17:01:23.427Z,45.80
2022-10-04T17:52:05.016Z,50.60
2022-10-04T17:54:53.432Z,50.10
2022-10-04T17:57:34.268Z,50.90
2022-10-04T18:20:45.996Z,52.30
2022-10-04T18:23:24.786Z,52.40
2022-10-04T19:07:30.315Z,55.40
2022-10-04T19:13:07.539Z,55.20
2022-10-04T19:57:03.547Z,55.80
2022-10-04T20:04:38.686Z,55.90
2022-10-04T20:07:17.916Z,56.10
2022-10-04T20:59:17.652Z,57.20
2022-10-04T21:02:04.972Z,57.30
2022-10-04T21:04:46.639Z,57.50
2022-10-04T21:09:45.435Z,57.80
2022-10-04T21:50:27.277Z,58.40
2022-10-04T22:00:15.930Z,58.50
2022-10-04T22:12:32.262Z,58.80
2022-10-04T22:22:20.763Z,59.20
2022-10-04T22:27:19.915Z,59.30
2022-10-04T22:32:40.453Z,59.50
2022-10-04T22:35:17.397Z,59.30
2022-10-04T22:37:45.311Z,59.40
2022-10-04T22:40:19.970Z,59.50
2022-10-04T22:42:53.289Z,59.60
2022-10-04T22:45:23.494Z,59.60
2022-10-04T22:47:51.727Z,59.60
2022-10-04T22:50:31.758Z,59.70
2022-10-04T22:53:21.152Z,59.70
2022-10-04T23:10:41.469Z,59.50
2022-10-04T23:20:30.311Z,59.30
2022-10-04T23:25:29.145Z,59.40
2022-10-04T23:30:28.900Z,59.30
